createdAt,value
2019-02-06T00:03:26.506Z,102199.25
2019-02-06T00:08:31.825Z,102191.84
2019-02-06T00:13:37.277Z,102188.06
2019-02-06T00:18:42.630Z,102200.86
2019-02-06T00:23:48.130Z,102196.41
2019-02-06T00:28:53.724Z,102201.55
2019-02-06T00:33:59.111Z,102205.55
2019-02-06T00:39:06.797Z,102206.31
2019-02-06T00:44:12.153Z,102194.20
2019-02-06T00:49:17.443Z,102189.13
2019-02-06T00:54:22.887Z,102187.24
2019-02-06T00:59:28.252Z,102184.11
2019-02-06T01:04:33.605Z,102188.85
2019-02-06T01:09:38.968Z,102190.21
2019-02-06T01:14:44.401Z,102192.31
2019-02-06T01:19:49.759Z,102185.33
2019-02-06T01:24:55.115Z,102180.50
2019-02-06T01:30:00.652Z,102177.19
2019-02-06T01:35:06.503Z,102176.52
2019-02-06T01:40:12.921Z,102170.84
2019-02-06T01:45:19.266Z,102159.66
2019-02-06T01:50:24.600Z,102166.91
2019-02-06T01:55:29.940Z,102172.03
2019-02-06T02:00:35.344Z,102172.16
2019-02-06T02:05:40.682Z,102169.28
2019-02-06T02:10:46.085Z,102164.31
2019-02-06T02:15:51.492Z,102155.41
2019-02-06T02:20:56.805Z,102144.36
2019-02-06T02:26:02.147Z,102137.41
2019-02-06T02:31:07.575Z,102133.65
2019-02-06T02:36:15.878Z,102121.28
2019-02-06T02:41:19.944Z,102111.37
2019-02-06T02:46:25.332Z,102117.89
2019-02-06T02:51:30.904Z,102101.22
2019-02-06T02:56:36.261Z,102088.28
2019-02-06T03:02:03.282Z,102076.11
2019-02-06T03:07:08.708Z,102080.09
2019-02-06T03:12:14.395Z,102082.72
2019-02-06T03:17:19.721Z,102075.03
2019-02-06T03:22:25.026Z,102066.50
2019-02-06T03:27:30.365Z,102060.56
2019-02-06T03:32:35.745Z,102053.22
2019-02-06T03:37:41.144Z,102042.41
2019-02-06T03:42:46.631Z,102032.73
2019-02-06T03:47:52.303Z,102028.66
2019-02-06T03:52:57.619Z,102032.53
2019-02-06T03:58:02.906Z,102022.19
2019-02-06T04:03:08.237Z,102016.76
2019-02-06T04:08:13.661Z,102013.33
2019-02-06T04:13:19.018Z,102016.20
2019-02-06T04:18:24.358Z,102017.17
2019-02-06T04:23:29.678Z,102017.28
2019-02-06T04:28:35.063Z,102015.55
2019-02-06T04:33:40.350Z,102016.03
2019-02-06T04:38:45.782Z,102016.92
2019-02-06T04:43:51.125Z,102026.13
2019-02-06T04:48:56.421Z,102014.81
2019-02-06T04:54:01.774Z,102024.65
2019-02-06T04:59:07.100Z,102014.95
2019-02-06T05:04:12.558Z,102004.66
2019-02-06T05:09:17.905Z,102002.22
2019-02-06T05:14:23.227Z,101997.55
2019-02-06T05:19:28.503Z,101979.24
2019-02-06T05:24:34.188Z,101975.59
2019-02-06T05:29:39.502Z,101962.79
2019-02-06T05:34:44.954Z,101955.70
2019-02-06T05:39:50.352Z,101959.44
2019-02-06T05:44:55.823Z,101958.27
2019-02-06T05:50:01.400Z,101956.94
2019-02-06T05:55:07.181Z,101953.48
2019-02-06T06:00:20.822Z,101941.08
2019-02-06T06:05:26.160Z,101940.97
2019-02-06T06:10:31.449Z,101952.44
2019-02-06T06:15:36.809Z,101955.98
2019-02-06T06:20:42.183Z,101956.39
2019-02-06T06:25:47.755Z,101953.98
2019-02-06T06:30:53.104Z,101943.99
2019-02-06T06:35:58.477Z,101938.83
2019-02-06T06:41:03.827Z,101935.41
2019-02-06T06:46:09.219Z,101934.09
2019-02-06T06:51:14.542Z,101931.08
2019-02-06T06:56:19.827Z,101938.84
2019-02-06T07:01:25.231Z,101929.69
2019-02-06T07:06:30.516Z,101927.77
2019-02-06T07:11:35.888Z,101922.81
2019-02-06T07:16:41.238Z,101924.66
2019-02-06T07:21:46.527Z,101919.77
2019-02-06T07:26:51.904Z,101914.64
2019-02-06T07:31:57.207Z,101921.05
2019-02-06T07:37:02.602Z,101913.20
2019-02-06T07:42:07.914Z,101917.45
2019-02-06T07:47:13.319Z,101920.66
2019-02-06T07:52:18.893Z,101907.37
2019-02-06T07:57:24.281Z,101911.19
2019-02-06T08:02:29.790Z,101914.15
2019-02-06T08:07:35.291Z,101910.83
2019-02-06T08:12:40.618Z,101906.16
2019-02-06T08:17:45.994Z,101910.09
2019-02-06T08:22:51.427Z,101913.77
2019-02-06T08:27:56.951Z,101907.83
2019-02-06T08:33:02.259Z,101909.88
2019-02-06T08:38:08.054Z,101918.40
2019-02-06T08:43:13.699Z,101910.70
2019-02-06T08:48:19.001Z,101907.94
2019-02-06T08:53:24.374Z,101898.80
2019-02-06T08:58:29.680Z,101902.16
2019-02-06T09:03:35.317Z,101902.73
2019-02-06T09:08:40.659Z,101908.31
2019-02-06T09:13:45.994Z,101908.16
2019-02-06T09:18:51.357Z,101899.57
2019-02-06T09:23:56.692Z,101905.78
2019-02-06T09:29:02.075Z,101909.94
2019-02-06T09:34:09.626Z,101904.52
2019-02-06T09:39:14.608Z,101915.56
2019-02-06T09:44:19.983Z,101916.41
2019-02-06T09:49:25.329Z,101920.08
2019-02-06T09:54:30.692Z,101912.80
2019-02-06T09:59:35.993Z,101914.27
2019-02-06T10:04:41.485Z,101909.67
2019-02-06T10:09:46.875Z,101906.95
2019-02-06T10:14:52.578Z,101901.98
2019-02-06T10:19:57.915Z,101898.48
2019-02-06T10:25:03.337Z,101899.80
2019-02-06T10:30:20.165Z,101896.56
2019-02-06T10:35:25.491Z,101884.55
2019-02-06T10:40:31.190Z,101885.08
2019-02-06T10:45:36.485Z,101886.69
2019-02-06T10:50:48.540Z,101886.85
2019-02-06T10:55:53.839Z,101877.98
2019-02-06T11:01:01.931Z,101876.73
2019-02-06T11:06:07.315Z,101868.36
2019-02-06T11:11:12.653Z,101858.30
2019-02-06T11:16:18.065Z,101852.73
2019-02-06T11:21:23.403Z,101842.19
2019-02-06T11:26:28.766Z,101832.98
2019-02-06T11:31:35.941Z,101830.47
2019-02-06T11:36:41.345Z,101821.02
2019-02-06T11:41:46.658Z,101809.20
2019-02-06T11:46:52.067Z,101800.56
2019-02-06T11:51:57.483Z,101790.10
2019-02-06T11:57:02.981Z,101779.80
2019-02-06T12:02:08.356Z,101770.56
2019-02-06T12:07:13.706Z,101764.05
2019-02-06T12:12:19.146Z,101760.91
2019-02-06T12:17:24.448Z,101748.38
2019-02-06T12:22:29.906Z,101740.68
2019-02-06T12:27:35.252Z,101726.72
2019-02-06T12:32:51.500Z,101718.91
2019-02-06T12:37:47.712Z,101704.17
2019-02-06T12:42:53.095Z,101702.52
2019-02-06T12:47:58.577Z,101683.16
2019-02-06T12:53:04.111Z,101675.86
2019-02-06T12:58:09.717Z,101662.97
2019-02-06T13:03:15.141Z,101655.94
2019-02-06T13:08:20.522Z,101641.86
2019-02-06T13:13:25.972Z,101636.81
2019-02-06T13:18:31.348Z,101635.62
2019-02-06T13:23:36.761Z,101634.98
2019-02-06T13:28:42.163Z,101632.72
2019-02-06T13:33:47.501Z,101623.44
2019-02-06T13:38:53.076Z,101621.28
2019-02-06T13:43:58.573Z,101622.95
2019-02-06T13:49:03.880Z,101618.88
2019-02-06T13:54:09.467Z,101623.50
2019-02-06T13:59:14.807Z,101607.00
2019-02-06T14:04:20.141Z,101601.12
2019-02-06T14:09:25.843Z,101591.60
2019-02-06T14:14:32.223Z,101581.66
2019-02-06T14:19:37.717Z,101573.98
2019-02-06T14:25:48.399Z,101563.36
2019-02-06T14:31:22.513Z,101568.84
2019-02-06T14:37:23.771Z,101569.70
2019-02-06T14:43:02.162Z,101558.63
2019-02-06T14:49:09.728Z,101555.06
2019-02-06T14:54:54.165Z,101551.15
2019-02-06T15:01:01.063Z,101546.05
2019-02-06T15:06:48.368Z,101541.59
2019-02-06T15:12:07.821Z,101539.02
2019-02-06T15:18:27.255Z,101533.06
2019-02-06T15:24:16.141Z,101532.11
2019-02-06T15:29:58.501Z,101528.41
2019-02-06T15:36:19.021Z,101515.41
2019-02-06T15:42:16.561Z,101498.93
2019-02-06T15:48:19.090Z,101495.52
2019-02-06T15:54:28.159Z,101480.17
2019-02-06T16:00:32.214Z,101491.84
2019-02-06T16:06:37.082Z,101488.96
2019-02-06T16:12:38.275Z,101502.44
2019-02-06T16:18:48.353Z,101502.28
2019-02-06T16:24:37.671Z,101496.62
2019-02-06T16:30:23.753Z,101487.13
2019-02-06T16:36:53.394Z,101490.64
2019-02-06T16:42:55.648Z,101485.09
2019-02-06T16:49:01.432Z,101482.70
2019-02-06T16:55:39.835Z,101487.27
2019-02-06T17:01:37.182Z,101496.59
2019-02-06T17:07:26.899Z,101501.66
2019-02-06T17:13:39.746Z,101499.67
2019-02-06T17:19:09.483Z,101494.20
2019-02-06T17:25:35.763Z,101484.69
2019-02-06T17:31:33.590Z,101476.28
2019-02-06T17:37:05.507Z,101485.98
2019-02-06T17:42:55.609Z,101487.55
2019-02-06T17:49:02.694Z,101491.21
2019-02-06T17:55:06.551Z,101478.33
2019-02-06T18:00:31.688Z,101474.17
2019-02-06T18:05:40.166Z,101464.91
2019-02-06T18:10:44.609Z,101463.02
2019-02-06T18:15:50.052Z,101452.06
2019-02-06T18:20:55.608Z,101460.05
2019-02-06T18:26:01.272Z,101463.14
2019-02-06T18:31:06.974Z,101463.14
2019-02-06T18:36:12.465Z,101456.71
2019-02-06T18:41:18.107Z,101448.86
2019-02-06T18:46:23.717Z,101453.17
2019-02-06T18:51:29.440Z,101442.09
2019-02-06T18:56:34.870Z,101430.91
2019-02-06T19:01:40.939Z,101421.19
2019-02-06T19:06:46.656Z,101422.20
2019-02-06T19:11:52.340Z,101415.39
2019-02-06T19:16:57.995Z,101408.81
2019-02-06T19:22:04.003Z,101408.30
2019-02-06T19:27:09.595Z,101400.29
2019-02-06T19:32:15.042Z,101400.50
2019-02-06T19:37:20.592Z,101395.20
2019-02-06T19:42:26.321Z,101390.77
2019-02-06T19:47:32.048Z,101382.18
2019-02-06T19:52:37.536Z,101380.73
2019-02-06T19:57:43.308Z,101382.27
2019-02-06T20:02:48.960Z,101371.67
2019-02-06T20:07:54.701Z,101361.45
2019-02-06T20:13:10.219Z,101357.98
2019-02-06T20:18:07.426Z,101348.14
2019-02-06T20:23:13.027Z,101339.28
2019-02-06T20:28:18.603Z,101339.36
2019-02-06T20:33:24.387Z,101330.12
2019-02-06T20:38:29.983Z,101330.05
2019-02-06T20:43:35.440Z,101323.14
2019-02-06T20:48:41.044Z,101313.88
2019-02-06T20:53:46.576Z,101306.48
2019-02-06T20:58:51.878Z,101312.59
2019-02-06T21:03:57.206Z,101307.09
2019-02-06T21:09:02.551Z,101296.67
2019-02-06T21:14:08.452Z,101288.44
2019-02-06T21:19:13.996Z,101274.63
2019-02-06T21:24:19.352Z,101272.89
2019-02-06T21:29:27.948Z,101281.13
2019-02-06T21:34:33.261Z,101290.75
2019-02-06T21:39:38.695Z,101283.89
2019-02-06T21:44:44.058Z,101279.22
2019-02-06T21:49:50.287Z,101274.77
2019-02-06T21:54:56.757Z,101272.80
2019-02-06T22:00:02.224Z,101260.11
2019-02-06T22:05:07.708Z,101252.17
2019-02-06T22:10:14.005Z,101249.83
2019-02-06T22:15:22.263Z,101241.91
2019-02-06T22:20:27.926Z,101236.66
2019-02-06T22:25:33.597Z,101226.09
2019-02-06T22:30:39.334Z,101213.24
2019-02-06T22:35:45.210Z,101221.62
2019-02-06T22:40:50.770Z,101228.05
2019-02-06T22:45:56.300Z,101204.73
2019-02-06T22:51:01.875Z,101195.24
2019-02-06T22:56:07.528Z,101196.86
2019-02-06T23:01:38.975Z,101183.80
2019-02-06T23:06:44.659Z,101189.56
2019-02-06T23:11:49.987Z,101175.91
2019-02-06T23:16:55.641Z,101181.19
2019-02-06T23:22:00.988Z,101175.00
2019-02-06T23:27:06.379Z,101159.45
2019-02-06T23:32:11.706Z,101145.83
2019-02-06T23:37:17.212Z,101141.44
2019-02-06T23:42:23.433Z,101122.16
2019-02-06T23:47:28.896Z,101115.89
2019-02-06T23:52:34.908Z,101097.23
2019-02-06T23:57:40.214Z,101095.69
